Time;durP1;ratioP1;P1;durP2;ratioP2;P2;SDS_P1;SDS_P2;PMS_P1;PMS_P2;Temp;Humidity;BMP_temperature;BMP_pressure;BME280_temperature;BME280_humidity;BME280_pressure;Samples;Min_cycle;Max_cycle;Signal;HPM_P1;HPM_P2
2021/10/09 00:02:11;;;;;;;2.03;1.83;;;11.70;98.20;;;;;;5013106;28;20547;-82
2021/10/09 00:04:38;;;;;;;1.57;1.10;;;11.70;98.20;;;;;;5018518;28;20491;-82
2021/10/09 00:07:05;;;;;;;1.60;1.20;;;11.60;98.20;;;;;;5011841;28;20486;-81
2021/10/09 00:09:31;;;;;;;1.50;1.10;;;11.50;98.20;;;;;;5018280;28;20490;-80
2021/10/09 00:11:58;;;;;;;1.53;1.10;;;11.50;98.20;;;;;;5015091;28;20494;-82
2021/10/09 00:14:26;;;;;;;1.60;1.30;;;11.40;98.20;;;;;;5020400;28;20452;-82
2021/10/09 00:16:53;;;;;;;1.50;1.10;;;11.30;98.20;;;;;;5011856;28;20483;-81
2021/10/09 00:19:20;;;;;;;1.57;1.20;;;11.20;98.20;;;;;;5024118;28;20487;-82
2021/10/09 00:21:47;;;;;;;1.60;1.20;;;11.10;98.20;;;;;;5014140;28;20490;-81
2021/10/09 00:24:14;;;;;;;1.57;1.10;;;11.10;98.20;;;;;;5028567;28;21053;-82
2021/10/09 00:26:41;;;;;;;1.53;1.10;;;11.00;98.20;;;;;;5011531;28;20966;-82
2021/10/09 00:29:08;;;;;;;1.57;1.10;;;11.00;98.20;;;;;;5026281;28;20480;-82
2021/10/09 00:31:37;;;;;;;1.50;1.10;;;10.90;98.20;;;;;;5011428;28;21008;-82
2021/10/09 00:34:04;;;;;;;1.50;1.10;;;10.80;98.20;;;;;;5025708;28;20459;-83
2021/10/09 00:36:31;;;;;;;1.50;1.10;;;10.80;98.20;;;;;;5011776;28;20898;-81
2021/10/09 00:38:57;;;;;;;1.60;1.20;;;10.80;98.20;;;;;;5028291;28;21019;-82
2021/10/09 00:41:24;;;;;;;2.63;2.43;;;10.70;98.20;;;;;;5016913;28;20565;-82
2021/10/09 00:43:51;;;;;;;1.60;1.20;;;10.70;98.20;;;;;;5026951;28;20464;-82
2021/10/09 00:46:18;;;;;;;1.60;1.20;;;10.60;98.20;;;;;;5015547;28;20474;-81
2021/10/09 00:48:46;;;;;;;1.57;1.10;;;10.60;98.20;;;;;;5031648;28;20480;-82
2021/10/09 00:51:13;;;;;;;1.53;1.20;;;10.60;98.20;;;;;;5010747;28;21039;-83
2021/10/09 00:53:41;;;;;;;1.60;1.20;;;10.50;98.20;;;;;;5031615;28;20490;-80
2021/10/09 00:56:09;;;;;;;1.57;1.10;;;10.50;98.20;;;;;;5012428;28;20530;-82
2021/10/09 00:58:39;;;;;;;1.60;1.20;;;10.40;98.20;;;;;;5027607;28;20484;-81
2021/10/09 01:01:06;;;;;;;1.57;1.10;;;10.40;98.20;;;;;;5010799;28;22584;-79
2021/10/09 01:03:32;;;;;;;1.53;1.10;;;10.40;98.20;;;;;;5029222;28;20464;-82
2021/10/09 01:06:01;;;;;;;1.57;1.20;;;10.30;98.20;;;;;;5009794;28;20491;-82
2021/10/09 01:08:27;;;;;;;1.60;1.20;;;10.30;98.20;;;;;;5033428;28;20490;-82
2021/10/09 01:10:54;;;;;;;1.53;1.20;;;10.30;98.20;;;;;;5002514;28;20985;-82
2021/10/09 01:13:21;;;;;;;1.50;1.20;;;10.20;98.20;;;;;;5032787;28;20472;-82
2021/10/09 01:15:48;;;;;;;1.57;1.20;;;10.20;98.20;;;;;;5019700;28;20460;-79
2021/10/09 01:18:17;;;;;;;1.57;1.20;;;10.20;98.20;;;;;;5021332;28;20771;-82
2021/10/09 01:20:50;;;;;;;1.60;1.30;;;10.10;98.20;;;;;;5008236;28;20472;-81
2021/10/09 01:23:17;;;;;;;1.60;1.13;;;10.10;98.20;;;;;;4999992;28;20487;-82
2021/10/09 01:25:44;;;;;;;1.60;1.30;;;10.10;98.20;;;;;;5019100;28;20499;-82
2021/10/09 01:28:11;;;;;;;1.60;1.50;;;10.10;98.20;;;;;;5027994;28;20545;-81
2021/10/09 01:30:38;;;;;;;1.57;1.20;;;10.00;98.20;;;;;;5016845;28;20575;-81
2021/10/09 01:33:06;;;;;;;1.60;1.30;;;10.00;98.20;;;;;;5027129;28;20486;-81
2021/10/09 01:35:47;;;;;;;1.53;1.10;;;10.00;98.20;;;;;;5017789;28;20844;-81
2021/10/09 01:38:14;;;;;;;1.60;1.20;;;10.00;98.20;;;;;;5012775;28;20489;-80
2021/10/09 01:40:40;;;;;;;1.60;1.10;;;9.90;98.20;;;;;;5016032;28;20899;-81
2021/10/09 01:43:09;;;;;;;1.60;1.20;;;9.90;98.20;;;;;;5021408;28;20484;-81
2021/10/09 01:45:36;;;;;;;1.60;1.20;;;9.90;98.20;;;;;;5019199;28;20487;-81
2021/10/09 01:48:03;;;;;;;1.60;1.20;;;9.90;98.20;;;;;;5023044;28;20487;-81
2021/10/09 01:50:30;;;;;;;1.60;1.20;;;9.90;98.20;;;;;;5021332;28;20576;-81
2021/10/09 01:52:58;;;;;;;1.60;1.30;;;9.80;98.20;;;;;;5020947;28;20937;-82
2021/10/09 01:55:25;;;;;;;1.60;1.10;;;9.80;98.20;;;;;;5024818;28;20456;-81
2021/10/09 01:57:52;;;;;;;1.60;1.20;;;9.80;98.20;;;;;;5020928;28;20527;-81
2021/10/09 02:00:19;;;;;;;1.60;1.20;;;9.70;98.20;;;;;;5021466;28;20460;-81
2021/10/09 02:02:46;;;;;;;1.60;1.20;;;9.70;98.20;;;;;;5020294;28;20479;-79
2021/10/09 02:05:13;;;;;;;1.60;1.30;;;9.70;98.20;;;;;;5022988;28;20488;-82
2021/10/09 02:07:40;;;;;;;1.77;1.53;;;9.70;98.20;;;;;;5020755;28;20562;-82
2021/10/09 02:10:09;;;;;;;1.60;1.20;;;9.70;98.20;;;;;;5019798;28;20486;-81
2021/10/09 02:12:36;;;;;;;1.57;1.20;;;9.60;98.20;;;;;;5014713;28;20559;-81
2021/10/09 02:15:07;;;;;;;1.60;1.20;;;9.60;98.20;;;;;;5024536;28;20472;-80
2021/10/09 02:18:04;;;;;;;1.60;1.20;;;9.60;98.20;;;;;;5023463;28;20539;-79
2021/10/09 02:26:02;;;;;;;2.00;1.80;;;9.50;98.20;;;;;;5016856;28;20470;-81
2021/10/09 02:28:29;;;;;;;1.60;1.30;;;9.40;98.20;;;;;;5038914;28;20514;-79
2021/10/09 02:30:56;;;;;;;1.60;1.30;;;9.40;98.20;;;;;;5015420;28;20475;-80
2021/10/09 02:33:23;;;;;;;1.60;1.20;;;9.40;98.20;;;;;;5043799;28;20466;-78
2021/10/09 02:35:50;;;;;;;1.60;1.20;;;9.40;98.20;;;;;;5005834;28;20874;-80
2021/10/09 02:38:17;;;;;;;1.60;1.30;;;9.30;98.20;;;;;;5030634;28;20496;-80
2021/10/09 02:40:45;;;;;;;1.60;1.30;;;9.30;98.20;;;;;;5013153;28;20467;-80
2021/10/09 02:43:14;;;;;;;1.60;1.20;;;9.30;98.20;;;;;;5003038;28;20859;-80
2021/10/09 02:45:41;;;;;;;1.60;1.30;;;9.30;98.20;;;;;;5013562;28;20484;-81
2021/10/09 02:48:09;;;;;;;1.60;1.10;;;9.20;98.20;;;;;;5023411;28;20488;-80
2021/10/09 02:50:36;;;;;;;1.60;1.20;;;9.20;98.20;;;;;;5015499;28;20496;-80
2021/10/09 02:53:04;;;;;;;1.60;1.30;;;9.20;98.20;;;;;;5023881;28;20494;-79
2021/10/09 02:55:30;;;;;;;1.60;1.20;;;9.20;98.20;;;;;;5014302;28;20467;-81
2021/10/09 02:57:57;;;;;;;1.60;1.30;;;9.20;98.20;;;;;;5020316;28;20479;-80
2021/10/09 03:00:25;;;;;;;1.60;1.40;;;9.20;98.20;;;;;;5019759;28;20460;-79
2021/10/09 03:02:52;;;;;;;1.60;1.20;;;9.20;98.20;;;;;;5019794;28;20494;-80
2021/10/09 03:05:19;;;;;;;1.60;1.20;;;9.20;98.20;;;;;;5023992;28;20659;-80
2021/10/09 03:07:46;;;;;;;1.60;1.30;;;9.20;98.20;;;;;;5022355;28;20538;-81
2021/10/09 03:10:13;;;;;;;1.60;1.20;;;9.20;98.20;;;;;;5024353;28;20464;-82
2021/10/09 03:12:40;;;;;;;1.60;1.20;;;9.20;98.20;;;;;;5019251;28;20487;-81
2021/10/09 03:15:09;;;;;;;1.60;1.20;;;9.30;98.20;;;;;;5014807;28;20457;-81
2021/10/09 03:17:37;;;;;;;1.70;1.50;;;9.30;98.20;;;;;;5025247;28;20644;-79
2021/10/09 03:20:04;;;;;;;1.60;1.20;;;9.30;98.20;;;;;;5016879;28;20975;-81
2021/10/09 03:22:31;;;;;;;1.60;1.20;;;9.30;98.20;;;;;;5021105;28;20486;-80
2021/10/09 03:24:58;;;;;;;1.60;1.20;;;9.30;98.20;;;;;;5017986;28;20492;-82
2021/10/09 03:27:25;;;;;;;1.60;1.20;;;9.20;98.20;;;;;;5018734;28;20491;-79
2021/10/09 03:29:52;;;;;;;1.60;1.30;;;9.20;98.20;;;;;;5022408;28;20471;-80
2021/10/09 03:32:18;;;;;;;1.60;1.30;;;9.20;98.20;;;;;;5011859;28;20479;-80
2021/10/09 03:34:47;;;;;;;1.60;1.20;;;9.20;98.20;;;;;;5019913;28;20464;-81
2021/10/09 03:37:13;;;;;;;1.60;1.30;;;9.20;98.20;;;;;;5020042;28;20581;-80
2021/10/09 03:39:42;;;;;;;1.60;1.20;;;9.10;98.20;;;;;;5019792;28;20472;-82
2021/10/09 03:42:12;;;;;;;1.60;1.27;;;9.10;98.20;;;;;;5019101;28;20605;-79
2021/10/09 03:44:41;;;;;;;1.60;1.30;;;9.10;98.20;;;;;;5021830;28;20463;-79
2021/10/09 03:47:17;;;;;;;1.60;1.20;;;9.10;98.20;;;;;;5018315;28;20499;-82
2021/10/09 03:49:48;;;;;;;1.60;1.20;;;9.10;98.20;;;;;;5019392;28;20965;-80
2021/10/09 03:52:36;;;;;;;1.60;1.20;;;9.10;98.20;;;;;;5017950;28;20850;-81
2021/10/09 03:55:05;;;;;;;1.60;1.30;;;9.10;98.20;;;;;;5019053;28;20479;-79
2021/10/09 03:57:32;;;;;;;1.60;1.20;;;9.10;98.20;;;;;;5023186;28;21024;-81
2021/10/09 03:59:59;;;;;;;1.60;1.20;;;9.10;98.20;;;;;;5027438;28;20471;-80
2021/10/09 04:02:25;;;;;;;1.60;1.20;;;9.10;98.20;;;;;;5028462;28;20791;-79
2021/10/09 04:04:52;;;;;;;1.60;1.20;;;9.10;98.20;;;;;;5027725;28;20467;-81
2021/10/09 04:07:20;;;;;;;1.60;1.30;;;9.10;98.20;;;;;;5020348;28;20507;-81
2021/10/09 04:09:47;;;;;;;1.60;1.20;;;9.10;98.20;;;;;;5028807;28;20487;-80
2021/10/09 04:12:14;;;;;;;1.60;1.40;;;9.10;98.20;;;;;;5020336;28;20475;-81
2021/10/09 04:14:41;;;;;;;1.60;1.20;;;9.10;98.20;;;;;;5022878;28;20468;-81
2021/10/09 04:17:07;;;;;;;1.60;1.30;;;9.00;98.20;;;;;;5022345;28;20536;-81
2021/10/09 04:19:34;;;;;;;1.60;1.20;;;9.00;98.20;;;;;;5032692;28;20515;-81
2021/10/09 04:22:01;;;;;;;1.60;1.20;;;9.00;98.20;;;;;;5020596;28;20541;-80
2021/10/09 04:24:29;;;;;;;1.60;1.20;;;9.00;98.20;;;;;;5027159;28;20943;-81
2021/10/09 04:26:56;;;;;;;1.60;1.20;;;9.00;98.20;;;;;;5019608;28;20828;-81
2021/10/09 04:29:23;;;;;;;1.60;1.30;;;9.00;98.20;;;;;;5027869;28;20487;-80
2021/10/09 04:31:50;;;;;;;1.60;1.20;;;8.90;98.20;;;;;;5016828;28;20479;-81
2021/10/09 04:34:17;;;;;;;1.60;1.27;;;8.90;98.20;;;;;;5030821;28;20559;-81
2021/10/09 04:36:44;;;;;;;1.60;1.30;;;8.80;98.20;;;;;;5014631;28;20497;-79
2021/10/09 04:39:11;;;;;;;1.60;1.20;;;8.80;98.20;;;;;;5029845;28;20487;-79
2021/10/09 04:41:39;;;;;;;1.60;1.30;;;8.80;98.20;;;;;;5018384;28;20486;-81
2021/10/09 04:44:07;;;;;;;1.60;1.30;;;8.70;98.20;;;;;;5029767;28;20468;-81
2021/10/09 04:46:34;;;;;;;1.60;1.30;;;8.70;98.20;;;;;;5012606;28;20483;-80
2021/10/09 04:49:00;;;;;;;1.60;1.30;;;8.70;98.20;;;;;;5030708;28;20506;-79
2021/10/09 04:51:27;;;;;;;1.60;1.20;;;8.70;98.20;;;;;;5013762;28;20495;-79
2021/10/09 04:53:54;;;;;;;1.60;1.30;;;8.60;98.20;;;;;;5032188;28;20468;-80
2021/10/09 04:56:20;;;;;;;1.60;1.30;;;8.60;98.20;;;;;;5014266;28;20489;-80
2021/10/09 04:58:49;;;;;;;1.60;1.20;;;8.60;98.20;;;;;;5034678;28;20486;-81
2021/10/09 05:01:15;;;;;;;1.60;1.30;;;8.60;98.20;;;;;;5011368;28;20475;-78
2021/10/09 05:03:42;;;;;;;1.60;1.20;;;8.50;98.20;;;;;;5031957;28;20941;-79
2021/10/09 05:06:09;;;;;;;2.93;2.30;;;8.50;98.20;;;;;;5018700;28;20477;-79
2021/10/09 05:08:36;;;;;;;1.60;1.20;;;8.50;98.20;;;;;;5034174;28;20490;-80
2021/10/09 05:11:02;;;;;;;1.60;1.30;;;8.50;98.20;;;;;;5013547;28;20947;-80
2021/10/09 05:13:29;;;;;;;1.60;1.30;;;8.40;98.20;;;;;;5034949;28;20534;-80
2021/10/09 05:15:57;;;;;;;1.60;1.30;;;8.40;98.20;;;;;;5013169;28;20543;-80
2021/10/09 05:18:24;;;;;;;1.60;1.30;;;8.40;98.20;;;;;;5034617;28;20483;-79
2021/10/09 05:20:51;;;;;;;1.60;1.30;;;8.40;98.20;;;;;;5011466;28;20460;-78
2021/10/09 05:23:18;;;;;;;1.60;1.30;;;8.40;98.20;;;;;;5037956;28;20459;-80
2021/10/09 05:25:44;;;;;;;1.60;1.30;;;8.30;98.20;;;;;;5015949;28;20516;-79
2021/10/09 05:28:14;;;;;;;1.60;1.30;;;8.30;98.20;;;;;;5007486;28;20495;-80
2021/10/09 05:30:46;;;;;;;1.60;1.30;;;8.30;98.20;;;;;;5022464;28;20468;-80
2021/10/09 05:33:23;;;;;;;1.60;1.30;;;8.30;98.20;;;;;;5028911;28;20482;-80
2021/10/09 05:35:49;;;;;;;1.60;1.30;;;8.30;98.20;;;;;;5010647;28;20531;-79
2021/10/09 05:38:16;;;;;;;1.60;1.30;;;8.20;98.20;;;;;;5036947;28;20490;-80
2021/10/09 05:40:43;;;;;;;1.60;1.20;;;8.20;98.20;;;;;;5024596;28;20491;-81
2021/10/09 05:43:09;;;;;;;1.60;1.30;;;8.20;98.20;;;;;;5027414;28;20497;-81
2021/10/09 05:45:36;;;;;;;1.70;1.60;;;8.20;98.20;;;;;;5013102;28;20492;-82
2021/10/09 05:48:03;;;;;;;1.60;1.30;;;8.20;98.20;;;;;;5028091;28;20483;-81
2021/10/09 05:50:38;;;;;;;1.60;1.30;;;8.20;98.20;;;;;;5021795;28;20464;-81
2021/10/09 05:53:12;;;;;;;1.60;1.30;;;8.20;98.20;;;;;;5027101;28;20537;-81
2021/10/09 05:55:48;;;;;;;1.60;1.30;;;8.20;98.20;;;;;;5016211;28;20510;-81
2021/10/09 05:58:18;;;;;;;1.60;1.20;;;8.20;98.20;;;;;;5029809;28;20566;-82
2021/10/09 06:26:05;;;;;;;1.60;1.30;;;8.20;98.20;;;;;;5015836;28;20534;-81
2021/10/09 06:45:29;;;;;;;1.60;1.30;;;8.80;98.20;;;;;;5015941;28;20467;-80
2021/10/09 06:48:06;;;;;;;1.60;1.13;;;8.80;98.20;;;;;;5033452;28;20616;-81
2021/10/09 07:01:39;;;;;;;1.60;1.30;;;9.40;98.20;;;;;;5016911;28;20540;-81
2021/10/09 07:04:06;;;;;;;1.60;1.20;;;9.50;98.20;;;;;;5029047;28;20532;-80
2021/10/09 07:06:32;;;;;;;1.60;1.20;;;9.60;98.20;;;;;;5014172;28;20494;-80
2021/10/09 07:08:59;;;;;;;1.60;1.17;;;9.70;98.20;;;;;;5026676;28;20886;-80
2021/10/09 07:11:27;;;;;;;1.60;1.20;;;9.80;98.20;;;;;;5011620;28;20483;-80
2021/10/09 07:13:54;;;;;;;1.60;1.20;;;10.00;98.20;;;;;;5025100;28;20463;-80
2021/10/09 07:16:21;;;;;;;1.60;1.20;;;10.10;98.20;;;;;;5012645;28;20471;-79
2021/10/09 07:18:48;;;;;;;1.60;1.20;;;10.20;98.20;;;;;;5032550;28;20479;-80
2021/10/09 07:21:14;;;;;;;1.60;1.30;;;10.30;98.20;;;;;;5009760;28;20733;-81
2021/10/09 07:23:41;;;;;;;1.60;1.30;;;10.40;98.20;;;;;;5031497;28;20804;-81
2021/10/09 07:26:08;;;;;;;1.60;1.20;;;10.50;98.20;;;;;;5004601;28;20491;-80
2021/10/09 07:28:36;;;;;;;1.60;1.20;;;10.60;98.20;;;;;;5024767;28;20567;-81
2021/10/09 07:31:03;;;;;;;1.60;1.20;;;10.70;98.20;;;;;;5001909;28;20460;-78
2021/10/09 07:33:29;;;;;;;1.60;1.20;;;10.90;98.20;;;;;;5027707;28;20471;-80
2021/10/09 07:35:56;;;;;;;1.60;1.20;;;11.00;98.20;;;;;;4999676;28;20471;-80
2021/10/09 07:38:23;;;;;;;1.60;1.17;;;11.10;98.20;;;;;;5025784;28;20866;-80
2021/10/09 07:40:50;;;;;;;1.60;1.20;;;11.20;98.20;;;;;;5007326;28;20468;-80
2021/10/09 07:43:16;;;;;;;1.60;1.30;;;11.30;98.20;;;;;;5027632;28;20467;-80
2021/10/09 07:45:44;;;;;;;1.60;1.20;;;11.40;98.20;;;;;;5010526;28;20739;-81
2021/10/09 07:48:11;;;;;;;1.70;1.50;;;11.50;98.20;;;;;;5017865;28;20484;-81
2021/10/09 07:50:38;;;;;;;1.60;1.20;;;11.60;98.20;;;;;;5015530;28;20611;-82
2021/10/09 07:53:05;;;;;;;1.60;1.20;;;11.70;98.20;;;;;;5018698;28;20491;-81
2021/10/09 07:55:32;;;;;;;1.60;1.10;;;11.80;98.20;;;;;;5016729;28;20475;-81
2021/10/09 07:57:58;;;;;;;1.60;1.10;;;11.90;98.20;;;;;;5017353;28;20512;-80
2021/10/09 08:00:25;;;;;;;1.60;1.10;;;12.00;98.20;;;;;;5015228;28;20472;-82
2021/10/09 08:02:53;;;;;;;1.60;1.13;;;12.10;98.20;;;;;;5024299;28;20483;-81
2021/10/09 08:05:23;;;;;;;1.60;1.20;;;12.20;98.20;;;;;;5015501;28;20468;-81
2021/10/09 08:07:49;;;;;;;1.60;1.10;;;12.30;98.20;;;;;;5018219;28;20506;-77
2021/10/09 08:10:16;;;;;;;1.60;1.20;;;12.40;98.20;;;;;;5018571;28;20467;-81
2021/10/09 08:12:43;;;;;;;1.60;1.10;;;12.50;98.20;;;;;;5022340;28;20582;-82
2021/10/09 08:15:10;;;;;;;1.60;1.10;;;12.60;98.20;;;;;;5017297;28;20470;-82
2021/10/09 08:17:38;;;;;;;1.60;1.10;;;12.70;98.20;;;;;;5010567;28;20495;-80
2021/10/09 08:20:08;;;;;;;1.60;1.00;;;12.80;98.20;;;;;;5014329;28;20467;-81
2021/10/09 08:22:39;;;;;;;1.60;1.30;;;12.90;98.20;;;;;;5016769;28;20574;-82
2021/10/09 08:25:24;;;;;;;1.60;1.10;;;13.00;98.20;;;;;;5015768;28;20518;-82
2021/10/09 08:28:05;;;;;;;1.60;1.10;;;13.10;98.20;;;;;;5019822;28;20487;-82
2021/10/09 08:36:16;;;;;;;1.60;1.10;;;13.40;98.20;;;;;;5004950;28;20463;-82
2021/10/09 08:38:47;;;;;;;1.60;1.10;;;13.60;98.20;;;;;;5025592;28;20523;-82
2021/10/09 08:41:14;;;;;;;1.60;1.10;;;13.70;98.20;;;;;;5013958;28;20490;-81
2021/10/09 08:43:43;;;;;;;1.60;1.10;;;13.70;98.20;;;;;;5033279;28;20459;-82
2021/10/09 08:46:10;;;;;;;1.60;1.10;;;13.80;98.20;;;;;;5017780;28;20478;-82
2021/10/09 08:48:40;;;;;;;1.57;1.10;;;13.80;98.20;;;;;;5033274;28;20570;-82
2021/10/09 08:51:09;;;;;;;1.53;1.10;;;13.90;98.20;;;;;;5007089;28;20787;-83
2021/10/09 08:53:37;;;;;;;1.60;1.10;;;14.00;98.20;;;;;;5032959;28;20454;-82
2021/10/09 08:56:04;;;;;;;2.80;1.43;;;14.00;98.20;;;;;;5016115;28;20464;-82
2021/10/09 08:58:33;;;;;;;1.53;0.90;;;14.10;98.20;;;;;;5026938;28;20487;-82
2021/10/09 09:01:06;;;;;;;1.60;1.10;;;14.30;98.20;;;;;;5008248;28;20472;-81
2021/10/09 09:03:59;;;;;;;1.60;1.00;;;14.40;98.20;;;;;;5034875;28;20493;-82
2021/10/09 09:06:47;;;;;;;1.60;1.10;;;14.50;98.20;;;;;;5011826;28;20486;-80
2021/10/09 09:09:28;;;;;;;2.07;1.87;;;14.60;98.20;;;;;;5029006;28;20563;-79
2021/10/09 09:26:05;;;;;;;1.60;1.20;;;15.00;98.20;;;;;;5008412;28;20466;-80
2021/10/09 09:34:19;;;;;;;1.57;1.00;;;15.10;97.70;;;;;;5025337;28;20494;-81
2021/10/09 09:37:14;;;;;;;1.50;1.00;;;15.10;98.20;;;;;;5021981;28;20514;-81
2021/10/09 09:39:44;;;;;;;1.57;1.00;;;15.10;98.20;;;;;;5017690;28;20492;-81
2021/10/09 09:42:12;;;;;;;1.83;1.23;;;15.10;97.50;;;;;;5020143;28;20925;-82
2021/10/09 09:44:53;;;;;;;1.60;1.00;;;15.10;97.90;;;;;;5021503;28;20842;-81
2021/10/09 09:47:33;;;;;;;1.73;1.63;;;15.20;98.20;;;;;;5024364;28;21112;-81
2021/10/09 09:50:01;;;;;;;1.50;1.00;;;15.20;98.20;;;;;;5021312;28;20838;-81
2021/10/09 09:52:29;;;;;;;1.50;1.00;;;15.20;97.40;;;;;;5021531;28;20484;-80
2021/10/09 09:54:58;;;;;;;1.50;0.93;;;15.20;97.40;;;;;;5017669;28;20486;-81
2021/10/09 09:57:29;;;;;;;1.57;1.00;;;15.30;98.00;;;;;;5023776;28;20474;-81
2021/10/09 09:59:57;;;;;;;1.60;1.00;;;15.40;98.20;;;;;;5022180;28;20551;-80
2021/10/09 10:02:25;;;;;;;1.60;1.10;;;15.40;97.50;;;;;;5020825;28;21305;-80
2021/10/09 10:04:52;;;;;;;1.57;1.10;;;15.40;97.10;;;;;;5025611;28;20464;-81
2021/10/09 10:07:20;;;;;;;1.60;1.00;;;15.50;97.40;;;;;;5018909;28;20482;-80
2021/10/09 10:09:47;;;;;;;1.57;1.00;;;15.60;97.40;;;;;;5021936;28;20479;-80
2021/10/09 10:12:17;;;;;;;1.57;0.90;;;15.60;95.80;;;;;;5022675;28;20566;-80
2021/10/09 10:14:47;;;;;;;1.60;1.00;;;15.70;95.80;;;;;;5030312;28;20456;-81
2021/10/09 10:17:13;;;;;;;1.57;0.97;;;15.70;95.70;;;;;;5022606;28;20521;-80
2021/10/09 10:20:00;;;;;;;1.60;1.10;;;15.80;97.00;;;;;;5026908;28;20489;-81
2021/10/09 10:22:56;;;;;;;1.60;1.07;;;15.90;96.00;;;;;;5019136;28;20858;-79
2021/10/09 10:25:34;;;;;;;1.60;1.00;;;16.00;95.10;;;;;;5017944;28;20459;-81
2021/10/09 10:28:04;;;;;;;1.53;1.00;;;16.20;98.20;;;;;;5018520;28;20537;-80
2021/10/09 10:30:34;;;;;;;1.57;1.00;;;16.30;96.40;;;;;;5015374;28;20459;-80
2021/10/09 10:33:36;;;;;;;1.53;1.00;;;16.40;95.10;;;;;;5028153;28;20949;-80
2021/10/09 10:36:04;;;;;;;1.60;1.10;;;16.40;94.60;;;;;;5002676;28;20467;-80
2021/10/09 10:38:46;;;;;;;1.60;1.00;;;16.50;93.80;;;;;;5025186;28;20484;-80
2021/10/09 10:41:17;;;;;;;1.67;1.30;;;16.50;93.50;;;;;;5003233;28;20622;-79
2021/10/09 10:43:48;;;;;;;1.57;0.93;;;16.50;93.50;;;;;;5017870;28;20598;-80
2021/10/09 10:46:38;;;;;;;1.60;1.17;;;16.60;94.80;;;;;;5007576;28;20612;-80
2021/10/09 10:49:12;;;;;;;1.53;1.00;;;16.70;93.80;;;;;;5023424;28;20479;-79
2021/10/09 10:51:49;;;;;;;1.53;0.90;;;16.70;92.40;;;;;;5004952;28;20574;-80
2021/10/09 10:54:19;;;;;;;1.60;1.10;;;16.70;92.50;;;;;;5017748;28;20468;-80
2021/10/09 10:57:18;;;;;;;1.50;1.00;;;16.80;92.00;;;;;;5000449;28;20530;-79
2021/10/09 11:00:02;;;;;;;1.57;1.10;;;16.80;91.50;;;;;;5015290;28;20569;-79
2021/10/09 11:02:31;;;;;;;1.53;1.00;;;16.90;93.20;;;;;;5001321;28;20509;-79
2021/10/09 11:05:00;;;;;;;1.50;1.00;;;17.00;92.70;;;;;;5006493;28;20468;-79
2021/10/09 11:07:28;;;;;;;1.50;0.90;;;17.10;92.50;;;;;;5007399;28;20479;-79
2021/10/09 11:10:01;;;;;;;1.53;1.00;;;17.20;92.60;;;;;;5012430;28;20510;-79
2021/10/09 11:12:30;;;;;;;1.50;1.00;;;17.30;90.90;;;;;;5013140;28;21192;-79
2021/10/09 11:15:17;;;;;;;2.00;1.20;;;17.40;90.00;;;;;;5014796;28;20464;-79
2021/10/09 11:17:46;;;;;;;1.60;1.20;;;17.50;89.60;;;;;;5014543;28;20586;-79
2021/10/09 11:20:19;;;;;;;1.57;1.00;;;17.60;91.30;;;;;;5007879;28;20938;-78
2021/10/09 11:22:49;;;;;;;1.53;1.00;;;17.70;90.20;;;;;;5013343;28;20498;-79
2021/10/09 11:25:25;;;;;;;1.60;1.00;;;17.80;91.10;;;;;;5007778;28;20460;-78
2021/10/09 11:27:51;;;;;;;1.60;1.00;;;17.70;88.60;;;;;;5016692;28;20934;-80
2021/10/09 11:30:20;;;;;;;1.57;1.00;;;17.80;91.20;;;;;;5012032;28;20461;-80
2021/10/09 11:32:47;;;;;;;1.50;1.00;;;17.90;90.20;;;;;;5014548;28;20638;-80
2021/10/09 11:35:15;;;;;;;1.50;1.00;;;18.10;90.90;;;;;;5002491;28;20483;-80
2021/10/09 11:37:47;;;;;;;1.53;0.97;;;18.20;90.70;;;;;;5007966;28;20487;-80
2021/10/09 11:40:14;;;;;;;2.53;2.03;;;18.40;90.60;;;;;;5008414;28;20517;-80
2021/10/09 11:42:55;;;;;;;1.53;1.00;;;18.50;88.30;;;;;;5007868;28;20479;-80
2021/10/09 11:45:28;;;;;;;1.60;1.00;;;18.50;88.90;;;;;;5001196;28;20560;-81
2021/10/09 11:53:40;;;;;;;1.60;1.00;;;18.70;89.50;;;;;;4997208;28;20836;-80
2021/10/09 11:56:09;;;;;;;1.53;0.90;;;18.80;87.80;;;;;;5002580;28;20516;-80
2021/10/09 11:58:54;;;;;;;1.50;0.90;;;18.90;87.60;;;;;;5024435;28;20860;-77
2021/10/09 12:01:35;;;;;;;1.57;1.07;;;19.00;86.80;;;;;;5003498;28;20477;-80
2021/10/09 12:04:20;;;;;;;1.50;1.00;;;19.10;85.70;;;;;;5019382;28;20467;-81
2021/10/09 12:06:49;;;;;;;1.50;0.90;;;19.20;84.20;;;;;;5002637;28;20490;-79
2021/10/09 12:09:31;;;;;;;1.57;1.00;;;19.20;85.20;;;;;;5013466;28;20491;-80
2021/10/09 12:12:11;;;;;;;1.60;1.00;;;19.20;82.40;;;;;;5003990;28;20479;-80
2021/10/09 12:14:38;;;;;;;2.13;1.20;;;19.20;83.20;;;;;;5016128;28;20467;-80
2021/10/09 12:17:06;;;;;;;1.57;0.90;;;19.20;85.40;;;;;;5010380;28;20497;-77
2021/10/09 12:19:34;;;;;;;1.53;1.00;;;19.30;87.50;;;;;;5017630;28;21146;-80
2021/10/09 12:22:02;;;;;;;1.60;1.00;;;19.50;85.00;;;;;;5010627;28;20486;-80
2021/10/09 12:24:30;;;;;;;1.50;1.00;;;19.70;85.00;;;;;;5017514;28;20819;-79
2021/10/09 12:27:03;;;;;;;1.50;1.00;;;19.70;83.40;;;;;;5008244;28;20486;-80
2021/10/09 12:29:30;;;;;;;2.10;1.17;;;19.80;82.60;;;;;;5018475;28;20507;-78
2021/10/09 12:32:15;;;;;;;1.70;1.30;;;19.80;82.60;;;;;;5003730;28;20576;-76
2021/10/09 12:34:42;;;;;;;1.50;0.90;;;19.70;82.60;;;;;;5013398;28;20542;-79
2021/10/09 12:37:14;;;;;;;1.50;0.90;;;19.70;82.30;;;;;;5014305;28;21531;-76
2021/10/09 12:39:41;;;;;;;1.53;1.00;;;19.80;82.30;;;;;;5014709;28;20567;-78
2021/10/09 12:42:08;;;;;;;1.50;0.97;;;19.90;84.00;;;;;;5007622;28;20494;-79
2021/10/09 12:44:34;;;;;;;1.50;0.90;;;20.00;85.30;;;;;;5009221;28;20470;-79
2021/10/09 12:47:01;;;;;;;1.50;0.93;;;20.10;82.40;;;;;;5013440;28;20517;-78
2021/10/09 12:49:29;;;;;;;1.50;0.90;;;20.00;82.20;;;;;;5019223;28;21054;-79
2021/10/09 12:51:56;;;;;;;1.50;0.90;;;20.00;82.20;;;;;;5010510;28;20542;-79
2021/10/09 12:54:25;;;;;;;1.53;0.90;;;20.10;83.60;;;;;;5019173;28;20477;-78
2021/10/09 12:56:52;;;;;;;1.50;1.00;;;20.20;81.80;;;;;;5006501;28;21180;-79
2021/10/09 12:59:19;;;;;;;1.50;0.90;;;20.10;81.70;;;;;;5021609;28;20480;-78
2021/10/09 13:01:46;;;;;;;1.50;0.90;;;20.00;82.50;;;;;;5006687;28;20483;-79
2021/10/09 13:04:13;;;;;;;1.50;0.90;;;20.00;83.10;;;;;;5022346;28;20505;-79
2021/10/09 13:06:41;;;;;;;1.67;1.20;;;20.10;84.30;;;;;;5006171;28;20497;-79
2021/10/09 13:09:14;;;;;;;1.50;0.90;;;20.20;82.70;;;;;;5021927;28;20681;-78
2021/10/09 13:11:47;;;;;;;1.60;1.20;;;20.30;82.90;;;;;;5002798;28;20933;-79
2021/10/09 13:14:14;;;;;;;1.50;0.97;;;20.40;82.70;;;;;;5013626;28;20466;-81
2021/10/09 13:16:40;;;;;;;1.57;1.00;;;20.40;80.90;;;;;;5004732;28;20487;-79
2021/10/09 13:19:07;;;;;;;1.50;1.00;;;20.30;80.40;;;;;;5018145;28;20984;-80
2021/10/09 13:21:34;;;;;;;1.50;0.90;;;20.20;81.40;;;;;;5007624;28;20474;-80
2021/10/09 13:24:02;;;;;;;1.53;0.90;;;20.30;82.30;;;;;;5021323;28;20475;-79
2021/10/09 13:26:31;;;;;;;1.50;0.90;;;20.30;82.00;;;;;;5000912;28;20491;-80
2021/10/09 13:28:58;;;;;;;1.50;0.90;;;20.40;82.60;;;;;;5017413;28;20491;-76
2021/10/09 13:31:25;;;;;;;1.50;0.90;;;20.50;82.60;;;;;;5004799;28;20489;-76
2021/10/09 13:33:52;;;;;;;1.50;0.90;;;20.60;80.70;;;;;;5021575;28;20478;-76
2021/10/09 13:36:19;;;;;;;1.50;0.90;;;20.60;82.00;;;;;;5003888;28;20917;-79
2021/10/09 13:38:46;;;;;;;1.50;0.90;;;20.60;81.10;;;;;;5022443;28;20870;-79
2021/10/09 13:41:14;;;;;;;1.50;0.90;;;20.60;81.50;;;;;;5001302;28;21961;-78
2021/10/09 13:43:40;;;;;;;1.53;1.00;;;20.60;80.20;;;;;;5024059;28;20464;-79
2021/10/09 13:46:07;;;;;;;1.87;1.30;;;20.70;81.50;;;;;;5004113;28;20471;-79
2021/10/09 13:48:35;;;;;;;1.50;0.90;;;20.80;81.10;;;;;;5022979;28;21031;-78
2021/10/09 13:51:01;;;;;;;1.50;0.90;;;20.90;81.10;;;;;;4998437;28;20478;-79
2021/10/09 13:53:28;;;;;;;1.50;0.90;;;20.90;80.20;;;;;;5025274;28;20467;-78
2021/10/09 13:55:55;;;;;;;1.50;0.93;;;20.90;80.50;;;;;;5000859;28;20468;-80
2021/10/09 13:58:23;;;;;;;1.53;0.90;;;20.80;79.20;;;;;;5025225;28;20484;-79
2021/10/09 14:00:50;;;;;;;1.50;0.90;;;20.70;79.60;;;;;;5002557;28;20472;-82
2021/10/09 14:03:17;;;;;;;1.50;0.90;;;20.70;79.50;;;;;;5034372;28;20468;-82
2021/10/09 14:05:44;;;;;;;1.50;0.90;;;20.70;79.50;;;;;;5014868;28;20539;-80
2021/10/09 14:08:11;;;;;;;1.50;0.90;;;20.70;79.60;;;;;;5022979;28;20576;-80
2021/10/09 14:10:39;;;;;;;1.50;0.90;;;20.70;79.70;;;;;;5013085;28;20471;-79
2021/10/09 14:13:07;;;;;;;1.50;0.90;;;20.80;80.20;;;;;;5023418;28;20998;-80
2021/10/09 14:15:35;;;;;;;1.50;0.90;;;20.80;79.20;;;;;;5012650;28;20470;-80
2021/10/09 14:18:02;;;;;;;1.50;0.90;;;20.80;79.10;;;;;;5015135;28;20541;-80
2021/10/09 14:20:29;;;;;;;1.50;0.90;;;20.80;78.10;;;;;;5012680;28;20476;-80
2021/10/09 14:22:57;;;;;;;1.60;1.20;;;20.80;78.50;;;;;;5026414;28;20565;-82
2021/10/09 14:25:29;;;;;;;1.50;0.97;;;20.70;78.50;;;;;;5018293;28;20471;-81
2021/10/09 14:27:56;;;;;;;1.50;0.90;;;20.60;76.00;;;;;;5020357;28;20507;-81
2021/10/09 14:30:23;;;;;;;1.50;0.90;;;20.50;78.00;;;;;;5011405;28;20467;-81
2021/10/09 14:32:51;;;;;;;1.50;0.90;;;20.50;78.80;;;;;;5018657;28;20578;-81